sensor_id;sensor_type;location;lat;lon;timestamp;temperature;humidity
27072;DHT22;14613;46.308;25.288;2023-07-28T00:01:36;13.10;80.90
27072;DHT22;14613;46.308;25.288;2023-07-28T00:04:11;13.20;80.90
27072;DHT22;14613;46.308;25.288;2023-07-28T00:06:37;13.10;80.90
27072;DHT22;14613;46.308;25.288;2023-07-28T00:09:03;13.10;80.90
27072;DHT22;14613;46.308;25.288;2023-07-28T00:11:28;13.10;81.00
27072;DHT22;14613;46.308;25.288;2023-07-28T00:13:54;13.10;81.10
27072;DHT22;14613;46.308;25.288;2023-07-28T00:16:20;13.10;81.10
27072;DHT22;14613;46.308;25.288;2023-07-28T00:18:45;13.10;81.00
27072;DHT22;14613;46.308;25.288;2023-07-28T00:21:11;13.00;81.00
27072;DHT22;14613;46.308;25.288;2023-07-28T00:23:37;13.00;81.10
27072;DHT22;14613;46.308;25.288;2023-07-28T00:26:02;13.00;81.20
27072;DHT22;14613;46.308;25.288;2023-07-28T00:28:28;12.90;81.00
27072;DHT22;14613;46.308;25.288;2023-07-28T00:30:54;12.90;81.20
27072;DHT22;14613;46.308;25.288;2023-07-28T00:33:19;12.90;82.10
27072;DHT22;14613;46.308;25.288;2023-07-28T00:35:45;12.80;81.30
27072;DHT22;14613;46.308;25.288;2023-07-28T00:38:11;12.80;81.50
27072;DHT22;14613;46.308;25.288;2023-07-28T00:40:37;12.70;81.60
27072;DHT22;14613;46.308;25.288;2023-07-28T00:43:02;12.70;81.80
27072;DHT22;14613;46.308;25.288;2023-07-28T00:45:29;12.70;81.80
27072;DHT22;14613;46.308;25.288;2023-07-28T00:47:56;12.70;81.80
27072;DHT22;14613;46.308;25.288;2023-07-28T00:50:25;12.70;81.90
27072;DHT22;14613;46.308;25.288;2023-07-28T00:52:51;12.70;81.90
27072;DHT22;14613;46.308;25.288;2023-07-28T00:55:17;12.70;82.00
27072;DHT22;14613;46.308;25.288;2023-07-28T00:57:43;12.70;82.00
27072;DHT22;14613;46.308;25.288;2023-07-28T01:00:09;12.70;82.10
27072;DHT22;14613;46.308;25.288;2023-07-28T01:02:36;12.70;82.10
27072;DHT22;14613;46.308;25.288;2023-07-28T01:05:03;12.70;82.10
27072;DHT22;14613;46.308;25.288;2023-07-28T01:08:11;12.70;82.10
27072;DHT22;14613;46.308;25.288;2023-07-28T01:10:41;12.70;82.10
27072;DHT22;14613;46.308;25.288;2023-07-28T01:13:07;12.70;82.20
27072;DHT22;14613;46.308;25.288;2023-07-28T01:15:32;12.70;82.20
27072;DHT22;14613;46.308;25.288;2023-07-28T01:17:58;12.70;82.30
27072;DHT22;14613;46.308;25.288;2023-07-28T01:20:25;12.70;82.40
27072;DHT22;14613;46.308;25.288;2023-07-28T01:25:52;12.60;82.50
27072;DHT22;14613;46.308;25.288;2023-07-28T01:28:19;12.50;82.70
27072;DHT22;14613;46.308;25.288;2023-07-28T01:30:45;12.40;82.80
27072;DHT22;14613;46.308;25.288;2023-07-28T01:33:11;12.40;82.90
27072;DHT22;14613;46.308;25.288;2023-07-28T01:35:37;12.40;83.00
27072;DHT22;14613;46.308;25.288;2023-07-28T01:38:06;12.40;83.00
27072;DHT22;14613;46.308;25.288;2023-07-28T01:40:32;12.40;83.00
27072;DHT22;14613;46.308;25.288;2023-07-28T01:42:58;12.40;83.00
27072;DHT22;14613;46.308;25.288;2023-07-28T01:45:23;12.40;82.90
27072;DHT22;14613;46.308;25.288;2023-07-28T01:47:49;12.40;82.90
27072;DHT22;14613;46.308;25.288;2023-07-28T01:50:15;12.50;82.90
27072;DHT22;14613;46.308;25.288;2023-07-28T01:52:41;12.50;82.90
27072;DHT22;14613;46.308;25.288;2023-07-28T01:55:07;12.50;82.80
27072;DHT22;14613;46.308;25.288;2023-07-28T01:57:33;12.50;82.80
27072;DHT22;14613;46.308;25.288;2023-07-28T01:59:59;12.50;82.80
27072;DHT22;14613;46.308;25.288;2023-07-28T02:02:25;12.40;82.70
27072;DHT22;14613;46.308;25.288;2023-07-28T02:04:51;12.40;82.70
27072;DHT22;14613;46.308;25.288;2023-07-28T02:07:16;12.30;82.80
27072;DHT22;14613;46.308;25.288;2023-07-28T02:25:46;11.90;83.90
27072;DHT22;14613;46.308;25.288;2023-07-28T02:28:11;11.90;84.00
27072;DHT22;14613;46.308;25.288;2023-07-28T02:30:37;11.90;84.00
27072;DHT22;14613;46.308;25.288;2023-07-28T02:33:03;11.90;83.90
27072;DHT22;14613;46.308;25.288;2023-07-28T02:35:29;11.90;83.90
27072;DHT22;14613;46.308;25.288;2023-07-28T02:51:25;12.00;83.80
27072;DHT22;14613;46.308;25.288;2023-07-28T02:53:51;12.00;84.00
27072;DHT22;14613;46.308;25.288;2023-07-28T02:56:16;12.00;84.00
27072;DHT22;14613;46.308;25.288;2023-07-28T02:58:42;11.90;84.00
27072;DHT22;14613;46.308;25.288;2023-07-28T03:01:08;12.00;84.10
27072;DHT22;14613;46.308;25.288;2023-07-28T03:03:33;11.90;84.10
27072;DHT22;14613;46.308;25.288;2023-07-28T03:05:59;11.90;84.20
27072;DHT22;14613;46.308;25.288;2023-07-28T03:08:25;11.90;84.30
27072;DHT22;14613;46.308;25.288;2023-07-28T03:10:56;11.90;84.20
27072;DHT22;14613;46.308;25.288;2023-07-28T03:13:22;11.90;84.20
27072;DHT22;14613;46.308;25.288;2023-07-28T03:15:48;11.90;84.10
27072;DHT22;14613;46.308;25.288;2023-07-28T03:18:14;12.00;84.10
27072;DHT22;14613;46.308;25.288;2023-07-28T03:20:39;12.00;84.10
27072;DHT22;14613;46.308;25.288;2023-07-28T03:23:05;12.10;84.20
27072;DHT22;14613;46.308;25.288;2023-07-28T03:25:31;12.20;84.60
27072;DHT22;14613;46.308;25.288;2023-07-28T03:27:56;12.40;85.10
27072;DHT22;14613;46.308;25.288;2023-07-28T03:30:22;12.60;85.30
27072;DHT22;14613;46.308;25.288;2023-07-28T03:32:48;12.90;85.40
27072;DHT22;14613;46.308;25.288;2023-07-28T03:35:13;13.20;85.60
27072;DHT22;14613;46.308;25.288;2023-07-28T03:37:39;13.60;85.20
27072;DHT22;14613;46.308;25.288;2023-07-28T03:40:05;13.80;84.90
27072;DHT22;14613;46.308;25.288;2023-07-28T03:42:32;14.00;84.60
27072;DHT22;14613;46.308;25.288;2023-07-28T03:44:58;14.30;84.70
27072;DHT22;14613;46.308;25.288;2023-07-28T03:47:23;14.60;84.60
27072;DHT22;14613;46.308;25.288;2023-07-28T03:49:49;14.90;84.40
27072;DHT22;14613;46.308;25.288;2023-07-28T03:52:15;15.20;84.30
27072;DHT22;14613;46.308;25.288;2023-07-28T03:54:41;15.50;84.00
27072;DHT22;14613;46.308;25.288;2023-07-28T03:57:08;15.90;83.80
27072;DHT22;14613;46.308;25.288;2023-07-28T03:59:34;16.30;83.40
27072;DHT22;14613;46.308;25.288;2023-07-28T04:01:59;16.70;82.80
27072;DHT22;14613;46.308;25.288;2023-07-28T04:04:25;17.10;82.10
27072;DHT22;14613;46.308;25.288;2023-07-28T04:06:51;17.50;81.50
27072;DHT22;14613;46.308;25.288;2023-07-28T04:09:18;17.90;80.80
27072;DHT22;14613;46.308;25.288;2023-07-28T04:11:43;18.30;80.20
27072;DHT22;14613;46.308;25.288;2023-07-28T04:14:09;18.70;79.30
27072;DHT22;14613;46.308;25.288;2023-07-28T04:16:35;19.00;78.70
27072;DHT22;14613;46.308;25.288;2023-07-28T04:19:01;19.40;78.10
27072;DHT22;14613;46.308;25.288;2023-07-28T04:21:26;19.80;77.50
27072;DHT22;14613;46.308;25.288;2023-07-28T04:23:53;20.00;76.50
27072;DHT22;14613;46.308;25.288;2023-07-28T04:26:18;20.30;75.70
27072;DHT22;14613;46.308;25.288;2023-07-28T04:28:44;20.60;75.30
27072;DHT22;14613;46.308;25.288;2023-07-28T04:31:10;21.00;74.60
27072;DHT22;14613;46.308;25.288;2023-07-28T04:33:36;21.30;74.00
27072;DHT22;14613;46.308;25.288;2023-07-28T04:36:02;21.60;72.50
27072;DHT22;14613;46.308;25.288;2023-07-28T04:38:28;21.50;71.00
27072;DHT22;14613;46.308;25.288;2023-07-28T04:40:54;21.40;70.50
27072;DHT22;14613;46.308;25.288;2023-07-28T04:43:20;21.10;70.00
27072;DHT22;14613;46.308;25.288;2023-07-28T04:45:46;20.80;70.20
27072;DHT22;14613;46.308;25.288;2023-07-28T04:48:11;20.70;70.70
27072;DHT22;14613;46.308;25.288;2023-07-28T04:50:37;20.70;70.80
27072;DHT22;14613;46.308;25.288;2023-07-28T04:53:03;20.80;70.60
27072;DHT22;14613;46.308;25.288;2023-07-28T04:55:29;21.00;70.40
27072;DHT22;14613;46.308;25.288;2023-07-28T04:57:55;21.30;70.40
27072;DHT22;14613;46.308;25.288;2023-07-28T05:00:21;21.60;70.00
27072;DHT22;14613;46.308;25.288;2023-07-28T05:02:47;21.90;69.30
27072;DHT22;14613;46.308;25.288;2023-07-28T05:05:13;22.20;69.00
27072;DHT22;14613;46.308;25.288;2023-07-28T05:07:38;22.50;68.50
27072;DHT22;14613;46.308;25.288;2023-07-28T05:10:04;22.70;68.00
27072;DHT22;14613;46.308;25.288;2023-07-28T05:12:30;22.90;67.40
27072;DHT22;14613;46.308;25.288;2023-07-28T05:14:56;23.10;67.10
27072;DHT22;14613;46.308;25.288;2023-07-28T05:17:25;23.40;66.60
27072;DHT22;14613;46.308;25.288;2023-07-28T05:19:51;23.60;66.20
27072;DHT22;14613;46.308;25.288;2023-07-28T05:22:17;23.90;65.60
27072;DHT22;14613;46.308;25.288;2023-07-28T05:24:44;23.90;64.80
27072;DHT22;14613;46.308;25.288;2023-07-28T05:27:10;23.90;64.20
27072;DHT22;14613;46.308;25.288;2023-07-28T05:29:36;23.80;64.10
27072;DHT22;14613;46.308;25.288;2023-07-28T05:32:02;23.90;64.10
27072;DHT22;14613;46.308;25.288;2023-07-28T05:34:29;24.00;64.00
27072;DHT22;14613;46.308;25.288;2023-07-28T05:36:55;24.10;63.60
27072;DHT22;14613;46.308;25.288;2023-07-28T05:39:21;24.30;63.10
27072;DHT22;14613;46.308;25.288;2023-07-28T05:41:47;24.50;62.40
27072;DHT22;14613;46.308;25.288;2023-07-28T05:44:13;24.70;62.10
27072;DHT22;14613;46.308;25.288;2023-07-28T05:46:39;24.70;61.60
27072;DHT22;14613;46.308;25.288;2023-07-28T05:49:05;24.90;61.70
27072;DHT22;14613;46.308;25.288;2023-07-28T05:51:31;25.10;61.50
27072;DHT22;14613;46.308;25.288;2023-07-28T05:53:57;25.30;60.60
27072;DHT22;14613;46.308;25.288;2023-07-28T05:56:23;25.40;60.10
27072;DHT22;14613;46.308;25.288;2023-07-28T05:58:50;25.50;59.90
27072;DHT22;14613;46.308;25.288;2023-07-28T06:01:16;25.80;59.90
27072;DHT22;14613;46.308;25.288;2023-07-28T06:03:42;26.00;59.50
27072;DHT22;14613;46.308;25.288;2023-07-28T06:06:08;26.30;59.50
27072;DHT22;14613;46.308;25.288;2023-07-28T06:08:34;26.60;59.10
27072;DHT22;14613;46.308;25.288;2023-07-28T06:11:04;27.00;58.90
27072;DHT22;14613;46.308;25.288;2023-07-28T06:13:31;27.30;59.00
27072;DHT22;14613;46.308;25.288;2023-07-28T06:15:57;27.60;58.00
27072;DHT22;14613;46.308;25.288;2023-07-28T06:18:24;27.80;57.70
27072;DHT22;14613;46.308;25.288;2023-07-28T06:20:50;28.00;57.20
27072;DHT22;14613;46.308;25.288;2023-07-28T06:23:16;28.20;57.00
27072;DHT22;14613;46.308;25.288;2023-07-28T06:25:42;28.40;56.70
27072;DHT22;14613;46.308;25.288;2023-07-28T06:28:12;28.50;56.40
27072;DHT22;14613;46.308;25.288;2023-07-28T06:30:38;28.60;56.00
27072;DHT22;14613;46.308;25.288;2023-07-28T06:33:08;28.70;56.00
27072;DHT22;14613;46.308;25.288;2023-07-28T06:35:34;28.70;55.60
27072;DHT22;14613;46.308;25.288;2023-07-28T06:38:00;28.70;55.10
27072;DHT22;14613;46.308;25.288;2023-07-28T06:40:26;28.60;55.00
27072;DHT22;14613;46.308;25.288;2023-07-28T06:42:52;28.60;55.20
27072;DHT22;14613;46.308;25.288;2023-07-28T06:45:41;28.50;55.30
27072;DHT22;14613;46.308;25.288;2023-07-28T06:48:07;28.60;55.30
27072;DHT22;14613;46.308;25.288;2023-07-28T06:50:33;28.70;55.40
27072;DHT22;14613;46.308;25.288;2023-07-28T06:52:59;28.80;55.00
27072;DHT22;14613;46.308;25.288;2023-07-28T06:55:25;28.90;54.80
27072;DHT22;14613;46.308;25.288;2023-07-28T06:57:51;28.90;54.80
27072;DHT22;14613;46.308;25.288;2023-07-28T07:00:17;29.10;54.80
27072;DHT22;14613;46.308;25.288;2023-07-28T07:02:45;29.20;54.50
27072;DHT22;14613;46.308;25.288;2023-07-28T07:05:11;29.30;54.40
27072;DHT22;14613;46.308;25.288;2023-07-28T07:07:38;29.50;54.20
27072;DHT22;14613;46.308;25.288;2023-07-28T07:10:04;29.50;54.10
27072;DHT22;14613;46.308;25.288;2023-07-28T07:12:30;29.60;53.60
27072;DHT22;14613;46.308;25.288;2023-07-28T07:14:56;29.30;52.30
27072;DHT22;14613;46.308;25.288;2023-07-28T07:17:21;28.90;52.30
27072;DHT22;14613;46.308;25.288;2023-07-28T07:19:47;28.60;53.20
27072;DHT22;14613;46.308;25.288;2023-07-28T07:22:13;28.60;53.70
27072;DHT22;14613;46.308;25.288;2023-07-28T07:24:39;28.80;53.80
27072;DHT22;14613;46.308;25.288;2023-07-28T07:27:05;28.90;53.90
27072;DHT22;14613;46.308;25.288;2023-07-28T07:29:30;29.00;53.40
27072;DHT22;14613;46.308;25.288;2023-07-28T07:32:06;29.00;53.30
27072;DHT22;14613;46.308;25.288;2023-07-28T07:34:36;28.90;53.30
27072;DHT22;14613;46.308;25.288;2023-07-28T07:37:04;28.90;53.30
27072;DHT22;14613;46.308;25.288;2023-07-28T07:39:29;28.90;53.40
27072;DHT22;14613;46.308;25.288;2023-07-28T07:41:55;29.00;53.40
27072;DHT22;14613;46.308;25.288;2023-07-28T07:44:21;29.00;53.60
27072;DHT22;14613;46.308;25.288;2023-07-28T07:46:47;29.20;53.40
27072;DHT22;14613;46.308;25.288;2023-07-28T07:49:13;29.30;53.00
27072;DHT22;14613;46.308;25.288;2023-07-28T07:51:39;29.20;53.00
27072;DHT22;14613;46.308;25.288;2023-07-28T07:54:04;29.30;53.00
27072;DHT22;14613;46.308;25.288;2023-07-28T07:56:30;29.40;52.80
27072;DHT22;14613;46.308;25.288;2023-07-28T07:58:56;29.30;52.90
27072;DHT22;14613;46.308;25.288;2023-07-28T08:01:22;29.40;52.80
27072;DHT22;14613;46.308;25.288;2023-07-28T08:03:48;29.40;52.80
27072;DHT22;14613;46.308;25.288;2023-07-28T08:06:13;29.50;53.00
27072;DHT22;14613;46.308;25.288;2023-07-28T08:08:39;29.50;53.00
27072;DHT22;14613;46.308;25.288;2023-07-28T08:11:05;29.60;52.90
27072;DHT22;14613;46.308;25.288;2023-07-28T08:13:33;29.70;52.80
27072;DHT22;14613;46.308;25.288;2023-07-28T08:15:58;29.60;52.80
27072;DHT22;14613;46.308;25.288;2023-07-28T08:18:24;29.50;52.60
27072;DHT22;14613;46.308;25.288;2023-07-28T08:20:50;29.40;52.50
27072;DHT22;14613;46.308;25.288;2023-07-28T08:23:15;29.30;52.40
27072;DHT22;14613;46.308;25.288;2023-07-28T08:25:41;29.10;52.40
27072;DHT22;14613;46.308;25.288;2023-07-28T08:28:07;29.20;52.50
27072;DHT22;14613;46.308;25.288;2023-07-28T08:30:33;29.30;52.40
27072;DHT22;14613;46.308;25.288;2023-07-28T08:32:59;29.30;52.20
27072;DHT22;14613;46.308;25.288;2023-07-28T08:35:24;29.10;52.30
27072;DHT22;14613;46.308;25.288;2023-07-28T08:37:50;29.30;52.30
27072;DHT22;14613;46.308;25.288;2023-07-28T08:40:16;29.50;52.00
27072;DHT22;14613;46.308;25.288;2023-07-28T08:42:42;29.60;51.60
27072;DHT22;14613;46.308;25.288;2023-07-28T08:45:09;29.80;51.50
27072;DHT22;14613;46.308;25.288;2023-07-28T08:47:36;29.90;51.30
27072;DHT22;14613;46.308;25.288;2023-07-28T08:50:03;30.10;51.10
27072;DHT22;14613;46.308;25.288;2023-07-28T08:52:29;30.20;50.90
27072;DHT22;14613;46.308;25.288;2023-07-28T08:54:54;30.30;50.70
27072;DHT22;14613;46.308;25.288;2023-07-28T08:57:20;30.50;50.70
27072;DHT22;14613;46.308;25.288;2023-07-28T08:59:46;30.60;50.60
27072;DHT22;14613;46.308;25.288;2023-07-28T09:02:17;30.60;50.40
27072;DHT22;14613;46.308;25.288;2023-07-28T09:04:45;30.80;50.20
27072;DHT22;14613;46.308;25.288;2023-07-28T09:07:14;31.00;50.00
27072;DHT22;14613;46.308;25.288;2023-07-28T09:09:40;31.10;49.90
27072;DHT22;14613;46.308;25.288;2023-07-28T09:12:07;31.30;49.50
27072;DHT22;14613;46.308;25.288;2023-07-28T09:14:37;31.30;49.30
27072;DHT22;14613;46.308;25.288;2023-07-28T09:17:11;31.40;49.10
27072;DHT22;14613;46.308;25.288;2023-07-28T09:19:51;31.20;49.00
27072;DHT22;14613;46.308;25.288;2023-07-28T09:22:17;31.10;48.90
27072;DHT22;14613;46.308;25.288;2023-07-28T09:24:43;31.10;48.80
27072;DHT22;14613;46.308;25.288;2023-07-28T09:27:22;31.00;48.50
27072;DHT22;14613;46.308;25.288;2023-07-28T09:29:52;30.90;48.30
27072;DHT22;14613;46.308;25.288;2023-07-28T09:32:28;30.70;48.30
27072;DHT22;14613;46.308;25.288;2023-07-28T09:35:11;30.40;48.00
27072;DHT22;14613;46.308;25.288;2023-07-28T09:37:42;30.10;48.00
27072;DHT22;14613;46.308;25.288;2023-07-28T09:40:10;30.00;48.10
27072;DHT22;14613;46.308;25.288;2023-07-28T09:42:43;29.80;48.00
27072;DHT22;14613;46.308;25.288;2023-07-28T09:45:10;29.70;48.00
27072;DHT22;14613;46.308;25.288;2023-07-28T09:47:37;29.40;48.00
27072;DHT22;14613;46.308;25.288;2023-07-28T09:50:05;29.30;48.70
27072;DHT22;14613;46.308;25.288;2023-07-28T09:52:34;29.40;48.80
27072;DHT22;14613;46.308;25.288;2023-07-28T09:55:07;29.40;48.40
27072;DHT22;14613;46.308;25.288;2023-07-28T09:57:41;29.40;48.60
27072;DHT22;14613;46.308;25.288;2023-07-28T10:00:11;29.50;48.80
27072;DHT22;14613;46.308;25.288;2023-07-28T10:02:39;29.70;48.50
27072;DHT22;14613;46.308;25.288;2023-07-28T10:05:08;29.80;48.20
27072;DHT22;14613;46.308;25.288;2023-07-28T10:07:38;29.80;48.00
27072;DHT22;14613;46.308;25.288;2023-07-28T10:10:09;29.70;47.90
27072;DHT22;14613;46.308;25.288;2023-07-28T10:12:42;29.70;48.10
27072;DHT22;14613;46.308;25.288;2023-07-28T10:15:18;29.80;48.20
27072;DHT22;14613;46.308;25.288;2023-07-28T10:17:50;29.90;48.00
27072;DHT22;14613;46.308;25.288;2023-07-28T10:20:33;30.00;48.10
27072;DHT22;14613;46.308;25.288;2023-07-28T10:23:21;30.20;48.10
27072;DHT22;14613;46.308;25.288;2023-07-28T10:25:59;30.30;47.50
27072;DHT22;14613;46.308;25.288;2023-07-28T10:28:40;30.20;47.10
27072;DHT22;14613;46.308;25.288;2023-07-28T10:31:10;30.00;47.00
27072;DHT22;14613;46.308;25.288;2023-07-28T10:33:38;29.90;47.10
27072;DHT22;14613;46.308;25.288;2023-07-28T10:38:41;30.10;47.60
27072;DHT22;14613;46.308;25.288;2023-07-28T10:41:18;30.20;47.10
27072;DHT22;14613;46.308;25.288;2023-07-28T10:43:47;30.30;47.20
27072;DHT22;14613;46.308;25.288;2023-07-28T10:46:17;30.50;47.20
27072;DHT22;14613;46.308;25.288;2023-07-28T10:48:49;30.80;47.20
27072;DHT22;14613;46.308;25.288;2023-07-28T10:51:26;30.80;46.80
27072;DHT22;14613;46.308;25.288;2023-07-28T10:53:58;30.70;46.50
27072;DHT22;14613;46.308;25.288;2023-07-28T10:56:25;30.70;46.60
27072;DHT22;14613;46.308;25.288;2023-07-28T11:01:31;30.70;46.30
27072;DHT22;14613;46.308;25.288;2023-07-28T11:06:44;30.40;46.50
27072;DHT22;14613;46.308;25.288;2023-07-28T11:09:10;30.40;46.40
27072;DHT22;14613;46.308;25.288;2023-07-28T11:11:37;30.50;46.50
27072;DHT22;14613;46.308;25.288;2023-07-28T11:14:05;30.50;46.20
27072;DHT22;14613;46.308;25.288;2023-07-28T11:16:34;30.30;45.60
27072;DHT22;14613;46.308;25.288;2023-07-28T11:19:01;30.00;45.60
27072;DHT22;14613;46.308;25.288;2023-07-28T11:21:28;29.90;45.80
27072;DHT22;14613;46.308;25.288;2023-07-28T11:23:54;29.90;46.00
27072;DHT22;14613;46.308;25.288;2023-07-28T11:26:21;29.80;46.20
27072;DHT22;14613;46.308;25.288;2023-07-28T11:28:48;29.90;46.40
27072;DHT22;14613;46.308;25.288;2023-07-28T11:31:14;30.00;46.40
27072;DHT22;14613;46.308;25.288;2023-07-28T11:33:41;30.10;46.30
27072;DHT22;14613;46.308;25.288;2023-07-28T11:36:07;30.10;46.00
27072;DHT22;14613;46.308;25.288;2023-07-28T11:38:34;30.10;46.20
27072;DHT22;14613;46.308;25.288;2023-07-28T11:41:02;30.20;46.40
27072;DHT22;14613;46.308;25.288;2023-07-28T11:43:28;30.20;46.20
27072;DHT22;14613;46.308;25.288;2023-07-28T11:45:54;30.00;45.50
27072;DHT22;14613;46.308;25.288;2023-07-28T11:48:20;29.90;45.80
27072;DHT22;14613;46.308;25.288;2023-07-28T11:50:46;30.00;46.20
27072;DHT22;14613;46.308;25.288;2023-07-28T11:53:12;30.00;46.10
27072;DHT22;14613;46.308;25.288;2023-07-28T11:55:38;30.00;46.00
27072;DHT22;14613;46.308;25.288;2023-07-28T11:58:07;30.00;45.80
27072;DHT22;14613;46.308;25.288;2023-07-28T12:00:35;30.10;45.90
27072;DHT22;14613;46.308;25.288;2023-07-28T12:03:11;30.20;46.10
27072;DHT22;14613;46.308;25.288;2023-07-28T12:05:41;30.30;46.10
27072;DHT22;14613;46.308;25.288;2023-07-28T12:08:08;30.40;46.10
27072;DHT22;14613;46.308;25.288;2023-07-28T12:10:34;30.40;46.10
27072;DHT22;14613;46.308;25.288;2023-07-28T12:13:07;30.50;46.00
27072;DHT22;14613;46.308;25.288;2023-07-28T12:15:33;30.50;46.00
27072;DHT22;14613;46.308;25.288;2023-07-28T12:20:44;30.60;45.90
27072;DHT22;14613;46.308;25.288;2023-07-28T12:23:16;30.60;45.80
27072;DHT22;14613;46.308;25.288;2023-07-28T12:25:43;30.60;46.00
27072;DHT22;14613;46.308;25.288;2023-07-28T12:28:09;30.60;45.90
27072;DHT22;14613;46.308;25.288;2023-07-28T12:33:57;30.60;45.80
27072;DHT22;14613;46.308;25.288;2023-07-28T12:36:23;30.70;46.00
27072;DHT22;14613;46.308;25.288;2023-07-28T12:38:49;30.70;46.00
27072;DHT22;14613;46.308;25.288;2023-07-28T12:41:14;30.60;45.30
27072;DHT22;14613;46.308;25.288;2023-07-28T12:43:40;30.40;44.90
27072;DHT22;14613;46.308;25.288;2023-07-28T12:46:06;30.10;45.00
27072;DHT22;14613;46.308;25.288;2023-07-28T12:48:31;29.90;45.30
27072;DHT22;14613;46.308;25.288;2023-07-28T12:50:57;29.70;45.70
27072;DHT22;14613;46.308;25.288;2023-07-28T12:53:23;29.60;46.10
27072;DHT22;14613;46.308;25.288;2023-07-28T12:55:49;29.60;46.30
27072;DHT22;14613;46.308;25.288;2023-07-28T12:58:15;29.60;46.20
27072;DHT22;14613;46.308;25.288;2023-07-28T13:00:41;29.60;46.00
27072;DHT22;14613;46.308;25.288;2023-07-28T13:03:07;29.50;46.10
27072;DHT22;14613;46.308;25.288;2023-07-28T13:05:32;29.50;46.20
27072;DHT22;14613;46.308;25.288;2023-07-28T13:07:58;29.50;46.30
27072;DHT22;14613;46.308;25.288;2023-07-28T13:10:24;29.60;46.40
27072;DHT22;14613;46.308;25.288;2023-07-28T13:12:49;29.70;46.20
27072;DHT22;14613;46.308;25.288;2023-07-28T13:15:15;29.60;45.90
27072;DHT22;14613;46.308;25.288;2023-07-28T13:17:41;29.60;45.80
27072;DHT22;14613;46.308;25.288;2023-07-28T13:20:07;29.40;45.60
27072;DHT22;14613;46.308;25.288;2023-07-28T13:22:34;29.20;45.80
27072;DHT22;14613;46.308;25.288;2023-07-28T13:24:59;29.20;46.20
27072;DHT22;14613;46.308;25.288;2023-07-28T13:27:25;29.20;46.30
27072;DHT22;14613;46.308;25.288;2023-07-28T13:29:51;29.40;46.60
27072;DHT22;14613;46.308;25.288;2023-07-28T13:32:24;29.40;46.40
27072;DHT22;14613;46.308;25.288;2023-07-28T13:34:50;29.40;46.40
27072;DHT22;14613;46.308;25.288;2023-07-28T13:37:17;29.40;46.20
27072;DHT22;14613;46.308;25.288;2023-07-28T13:39:43;29.30;46.30
27072;DHT22;14613;46.308;25.288;2023-07-28T13:42:09;29.20;46.50
27072;DHT22;14613;46.308;25.288;2023-07-28T13:44:37;29.10;46.50
27072;DHT22;14613;46.308;25.288;2023-07-28T13:47:03;29.00;46.80
27072;DHT22;14613;46.308;25.288;2023-07-28T13:49:29;29.00;46.90
27072;DHT22;14613;46.308;25.288;2023-07-28T13:51:55;29.10;47.00
27072;DHT22;14613;46.308;25.288;2023-07-28T13:54:21;29.00;46.80
27072;DHT22;14613;46.308;25.288;2023-07-28T13:56:47;28.90;46.80
27072;DHT22;14613;46.308;25.288;2023-07-28T13:59:12;28.80;46.90
27072;DHT22;14613;46.308;25.288;2023-07-28T14:01:38;28.70;46.80
27072;DHT22;14613;46.308;25.288;2023-07-28T14:04:04;28.60;46.70
27072;DHT22;14613;46.308;25.288;2023-07-28T14:06:29;28.50;47.00
27072;DHT22;14613;46.308;25.288;2023-07-28T14:08:55;28.50;47.20
27072;DHT22;14613;46.308;25.288;2023-07-28T14:11:21;28.50;47.30
27072;DHT22;14613;46.308;25.288;2023-07-28T14:13:47;28.50;47.20
27072;DHT22;14613;46.308;25.288;2023-07-28T14:16:13;28.50;47.40
27072;DHT22;14613;46.308;25.288;2023-07-28T14:18:39;28.50;47.50
27072;DHT22;14613;46.308;25.288;2023-07-28T14:21:06;28.60;47.60
27072;DHT22;14613;46.308;25.288;2023-07-28T14:23:32;28.60;47.50
27072;DHT22;14613;46.308;25.288;2023-07-28T14:25:57;28.50;47.20
27072;DHT22;14613;46.308;25.288;2023-07-28T14:28:23;28.50;47.40
27072;DHT22;14613;46.308;25.288;2023-07-28T14:30:50;28.60;47.60
27072;DHT22;14613;46.308;25.288;2023-07-28T14:33:17;28.60;47.40
27072;DHT22;14613;46.308;25.288;2023-07-28T14:35:44;28.60;47.40
27072;DHT22;14613;46.308;25.288;2023-07-28T14:38:11;28.50;47.40
27072;DHT22;14613;46.308;25.288;2023-07-28T14:40:37;28.50;47.30
27072;DHT22;14613;46.308;25.288;2023-07-28T14:43:03;28.40;47.40
27072;DHT22;14613;46.308;25.288;2023-07-28T14:45:30;28.30;47.40
27072;DHT22;14613;46.308;25.288;2023-07-28T14:47:55;28.20;47.40
27072;DHT22;14613;46.308;25.288;2023-07-28T14:50:21;28.20;47.50
27072;DHT22;14613;46.308;25.288;2023-07-28T14:52:48;28.10;47.60
27072;DHT22;14613;46.308;25.288;2023-07-28T14:55:14;28.10;47.70
27072;DHT22;14613;46.308;25.288;2023-07-28T14:57:39;28.00;47.80
27072;DHT22;14613;46.308;25.288;2023-07-28T15:00:05;28.00;47.90
27072;DHT22;14613;46.308;25.288;2023-07-28T15:02:33;28.00;48.00
27072;DHT22;14613;46.308;25.288;2023-07-28T15:04:59;28.00;48.10
27072;DHT22;14613;46.308;25.288;2023-07-28T15:07:24;28.00;48.10
27072;DHT22;14613;46.308;25.288;2023-07-28T15:09:50;27.90;48.00
27072;DHT22;14613;46.308;25.288;2023-07-28T15:12:16;27.90;48.10
27072;DHT22;14613;46.308;25.288;2023-07-28T15:14:42;27.80;48.10
27072;DHT22;14613;46.308;25.288;2023-07-28T15:17:07;27.80;48.20
27072;DHT22;14613;46.308;25.288;2023-07-28T15:19:33;27.70;48.30
27072;DHT22;14613;46.308;25.288;2023-07-28T15:21:59;27.70;48.40
27072;DHT22;14613;46.308;25.288;2023-07-28T15:24:24;27.70;48.50
27072;DHT22;14613;46.308;25.288;2023-07-28T15:26:50;27.60;48.50
27072;DHT22;14613;46.308;25.288;2023-07-28T15:29:19;27.50;48.50
27072;DHT22;14613;46.308;25.288;2023-07-28T15:31:45;27.40;48.70
27072;DHT22;14613;46.308;25.288;2023-07-28T15:34:11;27.40;49.50
27072;DHT22;14613;46.308;25.288;2023-07-28T15:36:36;27.40;48.90
27072;DHT22;14613;46.308;25.288;2023-07-28T15:39:02;27.40;48.90
27072;DHT22;14613;46.308;25.288;2023-07-28T15:41:29;27.40;48.90
27072;DHT22;14613;46.308;25.288;2023-07-28T15:43:55;27.40;49.00
27072;DHT22;14613;46.308;25.288;2023-07-28T15:46:21;27.40;49.00
27072;DHT22;14613;46.308;25.288;2023-07-28T15:48:47;27.40;49.10
27072;DHT22;14613;46.308;25.288;2023-07-28T15:51:13;27.30;49.10
27072;DHT22;14613;46.308;25.288;2023-07-28T15:53:39;27.30;49.20
27072;DHT22;14613;46.308;25.288;2023-07-28T15:56:05;27.20;49.20
27072;DHT22;14613;46.308;25.288;2023-07-28T15:58:32;27.20;49.30
27072;DHT22;14613;46.308;25.288;2023-07-28T16:00:58;27.10;49.30